sensor_id;sensor_type;location;lat;lon;timestamp;P1;durP1;ratioP1;P2;durP2;ratioP2
52866;SDS011;38739;53.324;6.862;2022-12-18T00:01:34;152.05;;;41.78;;
52866;SDS011;38739;53.324;6.862;2022-12-18T00:04:02;151.52;;;42.22;;
52866;SDS011;38739;53.324;6.862;2022-12-18T00:06:29;161.63;;;41.33;;
52866;SDS011;38739;53.324;6.862;2022-12-18T00:08:56;182.50;;;45.80;;
52866;SDS011;38739;53.324;6.862;2022-12-18T00:11:25;163.00;;;43.63;;
52866;SDS011;38739;53.324;6.862;2022-12-18T00:13:53;159.25;;;44.58;;
52866;SDS011;38739;53.324;6.862;2022-12-18T00:16:20;176.27;;;46.33;;
52866;SDS011;38739;53.324;6.862;2022-12-18T00:18:48;175.45;;;44.50;;
52866;SDS011;38739;53.324;6.862;2022-12-18T00:21:14;175.95;;;45.10;;
52866;SDS011;38739;53.324;6.862;2022-12-18T00:23:41;171.73;;;46.78;;
52866;SDS011;38739;53.324;6.862;2022-12-18T00:26:10;166.70;;;44.72;;
52866;SDS011;38739;53.324;6.862;2022-12-18T00:28:43;142.38;;;38.53;;
52866;SDS011;38739;53.324;6.862;2022-12-18T00:31:10;134.02;;;39.10;;
52866;SDS011;38739;53.324;6.862;2022-12-18T00:33:38;134.63;;;39.20;;
52866;SDS011;38739;53.324;6.862;2022-12-18T00:36:08;132.48;;;40.00;;
52866;SDS011;38739;53.324;6.862;2022-12-18T00:38:37;129.43;;;38.95;;
52866;SDS011;38739;53.324;6.862;2022-12-18T00:41:03;133.32;;;38.72;;
52866;SDS011;38739;53.324;6.862;2022-12-18T00:43:29;135.60;;;37.97;;
52866;SDS011;38739;53.324;6.862;2022-12-18T00:45:55;135.30;;;38.92;;
52866;SDS011;38739;53.324;6.862;2022-12-18T00:48:21;130.15;;;38.30;;
52866;SDS011;38739;53.324;6.862;2022-12-18T00:50:47;131.38;;;36.10;;
52866;SDS011;38739;53.324;6.862;2022-12-18T00:53:14;121.30;;;36.20;;
52866;SDS011;38739;53.324;6.862;2022-12-18T00:55:40;129.18;;;36.55;;
52866;SDS011;38739;53.324;6.862;2022-12-18T00:58:06;125.68;;;36.03;;
52866;SDS011;38739;53.324;6.862;2022-12-18T01:00:33;120.28;;;35.25;;
52866;SDS011;38739;53.324;6.862;2022-12-18T01:02:58;134.20;;;37.88;;
52866;SDS011;38739;53.324;6.862;2022-12-18T01:05:24;138.70;;;37.50;;
52866;SDS011;38739;53.324;6.862;2022-12-18T01:07:50;131.15;;;38.08;;
52866;SDS011;38739;53.324;6.862;2022-12-18T01:10:16;145.90;;;39.10;;
52866;SDS011;38739;53.324;6.862;2022-12-18T01:12:42;151.38;;;40.35;;
52866;SDS011;38739;53.324;6.862;2022-12-18T01:15:09;157.60;;;42.05;;
52866;SDS011;38739;53.324;6.862;2022-12-18T01:17:36;156.38;;;41.33;;
52866;SDS011;38739;53.324;6.862;2022-12-18T01:20:03;155.10;;;41.53;;
52866;SDS011;38739;53.324;6.862;2022-12-18T01:22:29;152.20;;;41.30;;
52866;SDS011;38739;53.324;6.862;2022-12-18T01:24:54;147.68;;;41.00;;
52866;SDS011;38739;53.324;6.862;2022-12-18T01:27:20;151.25;;;40.78;;
52866;SDS011;38739;53.324;6.862;2022-12-18T01:29:46;147.15;;;39.42;;
52866;SDS011;38739;53.324;6.862;2022-12-18T01:32:11;145.48;;;41.03;;
52866;SDS011;38739;53.324;6.862;2022-12-18T01:34:37;145.07;;;39.83;;
52866;SDS011;38739;53.324;6.862;2022-12-18T01:37:04;133.38;;;38.80;;
52866;SDS011;38739;53.324;6.862;2022-12-18T01:39:30;138.43;;;39.00;;
52866;SDS011;38739;53.324;6.862;2022-12-18T01:41:57;136.98;;;40.50;;
52866;SDS011;38739;53.324;6.862;2022-12-18T01:49:57;123.55;;;38.17;;
52866;SDS011;38739;53.324;6.862;2022-12-18T01:52:26;124.45;;;38.50;;
52866;SDS011;38739;53.324;6.862;2022-12-18T01:54:54;127.38;;;37.65;;
52866;SDS011;38739;53.324;6.862;2022-12-18T01:57:21;129.68;;;39.00;;
52866;SDS011;38739;53.324;6.862;2022-12-18T01:59:49;124.47;;;40.15;;
52866;SDS011;38739;53.324;6.862;2022-12-18T02:02:18;121.68;;;36.92;;
52866;SDS011;38739;53.324;6.862;2022-12-18T02:04:45;120.63;;;37.25;;
52866;SDS011;38739;53.324;6.862;2022-12-18T02:07:23;127.95;;;38.83;;
52866;SDS011;38739;53.324;6.862;2022-12-18T02:18:14;125.50;;;37.13;;
52866;SDS011;38739;53.324;6.862;2022-12-18T02:20:52;124.93;;;36.05;;
52866;SDS011;38739;53.324;6.862;2022-12-18T02:26:25;125.18;;;38.40;;
52866;SDS011;38739;53.324;6.862;2022-12-18T02:31:28;123.60;;;37.23;;
52866;SDS011;38739;53.324;6.862;2022-12-18T02:34:02;121.55;;;36.65;;
52866;SDS011;38739;53.324;6.862;2022-12-18T02:36:30;116.72;;;37.03;;
52866;SDS011;38739;53.324;6.862;2022-12-18T02:38:58;132.80;;;38.80;;
52866;SDS011;38739;53.324;6.862;2022-12-18T02:41:26;123.30;;;36.05;;
52866;SDS011;38739;53.324;6.862;2022-12-18T02:43:55;132.07;;;36.55;;
52866;SDS011;38739;53.324;6.862;2022-12-18T02:46:37;134.52;;;38.25;;
52866;SDS011;38739;53.324;6.862;2022-12-18T02:51:48;132.88;;;39.17;;
52866;SDS011;38739;53.324;6.862;2022-12-18T02:57:36;135.60;;;38.63;;
52866;SDS011;38739;53.324;6.862;2022-12-18T03:00:20;131.02;;;38.00;;
52866;SDS011;38739;53.324;6.862;2022-12-18T03:05:22;139.30;;;40.55;;
52866;SDS011;38739;53.324;6.862;2022-12-18T03:07:57;132.63;;;39.58;;
52866;SDS011;38739;53.324;6.862;2022-12-18T03:10:30;144.02;;;39.83;;
52866;SDS011;38739;53.324;6.862;2022-12-18T03:13:04;138.95;;;39.60;;
52866;SDS011;38739;53.324;6.862;2022-12-18T03:15:38;141.73;;;40.60;;
52866;SDS011;38739;53.324;6.862;2022-12-18T03:18:21;153.52;;;40.78;;
52866;SDS011;38739;53.324;6.862;2022-12-18T03:20:59;154.95;;;39.38;;
52866;SDS011;38739;53.324;6.862;2022-12-18T03:23:32;140.95;;;39.90;;
52866;SDS011;38739;53.324;6.862;2022-12-18T03:26:03;150.20;;;40.40;;
52866;SDS011;38739;53.324;6.862;2022-12-18T03:28:33;144.45;;;41.00;;
52866;SDS011;38739;53.324;6.862;2022-12-18T03:31:03;160.95;;;44.05;;
52866;SDS011;38739;53.324;6.862;2022-12-18T03:33:39;136.80;;;41.47;;
52866;SDS011;38739;53.324;6.862;2022-12-18T03:36:08;157.57;;;43.58;;
52866;SDS011;38739;53.324;6.862;2022-12-18T03:38:34;159.32;;;43.13;;
52866;SDS011;38739;53.324;6.862;2022-12-18T03:41:15;151.88;;;43.38;;
52866;SDS011;38739;53.324;6.862;2022-12-18T03:49:10;143.80;;;44.05;;
52866;SDS011;38739;53.324;6.862;2022-12-18T03:51:46;154.90;;;45.45;;
52866;SDS011;38739;53.324;6.862;2022-12-18T03:54:24;155.85;;;45.15;;
52866;SDS011;38739;53.324;6.862;2022-12-18T03:56:54;149.30;;;44.80;;
52866;SDS011;38739;53.324;6.862;2022-12-18T03:59:32;143.93;;;44.00;;
52866;SDS011;38739;53.324;6.862;2022-12-18T04:01:59;159.68;;;44.15;;
52866;SDS011;38739;53.324;6.862;2022-12-18T04:04:28;151.32;;;44.28;;
52866;SDS011;38739;53.324;6.862;2022-12-18T04:06:56;146.25;;;43.42;;
52866;SDS011;38739;53.324;6.862;2022-12-18T04:09:23;139.13;;;42.10;;
52866;SDS011;38739;53.324;6.862;2022-12-18T04:11:50;139.30;;;43.83;;
52866;SDS011;38739;53.324;6.862;2022-12-18T04:14:17;136.55;;;41.53;;
52866;SDS011;38739;53.324;6.862;2022-12-18T04:16:42;129.85;;;42.33;;
52866;SDS011;38739;53.324;6.862;2022-12-18T04:19:08;137.40;;;41.35;;
52866;SDS011;38739;53.324;6.862;2022-12-18T04:21:34;139.57;;;41.40;;
52866;SDS011;38739;53.324;6.862;2022-12-18T04:24:00;135.27;;;41.42;;
52866;SDS011;38739;53.324;6.862;2022-12-18T04:26:25;129.52;;;40.15;;
52866;SDS011;38739;53.324;6.862;2022-12-18T04:28:51;124.85;;;40.60;;
52866;SDS011;38739;53.324;6.862;2022-12-18T04:31:17;134.32;;;41.70;;
52866;SDS011;38739;53.324;6.862;2022-12-18T04:33:42;133.27;;;41.53;;
52866;SDS011;38739;53.324;6.862;2022-12-18T04:36:08;128.90;;;40.92;;
52866;SDS011;38739;53.324;6.862;2022-12-18T04:38:34;127.85;;;41.15;;
52866;SDS011;38739;53.324;6.862;2022-12-18T04:40:59;134.35;;;41.55;;
52866;SDS011;38739;53.324;6.862;2022-12-18T04:43:25;126.57;;;41.22;;
52866;SDS011;38739;53.324;6.862;2022-12-18T04:45:51;123.25;;;40.17;;
52866;SDS011;38739;53.324;6.862;2022-12-18T04:48:16;130.52;;;41.38;;
52866;SDS011;38739;53.324;6.862;2022-12-18T04:50:42;129.35;;;42.92;;
52866;SDS011;38739;53.324;6.862;2022-12-18T04:53:08;134.77;;;42.20;;
52866;SDS011;38739;53.324;6.862;2022-12-18T04:55:33;128.63;;;40.17;;
52866;SDS011;38739;53.324;6.862;2022-12-18T04:57:59;130.83;;;41.03;;
52866;SDS011;38739;53.324;6.862;2022-12-18T05:00:25;131.43;;;42.15;;
52866;SDS011;38739;53.324;6.862;2022-12-18T05:02:51;121.13;;;41.45;;
52866;SDS011;38739;53.324;6.862;2022-12-18T05:05:16;122.70;;;40.17;;
52866;SDS011;38739;53.324;6.862;2022-12-18T05:07:42;117.23;;;40.43;;
52866;SDS011;38739;53.324;6.862;2022-12-18T05:10:08;120.23;;;40.17;;
52866;SDS011;38739;53.324;6.862;2022-12-18T05:12:34;118.88;;;39.80;;
52866;SDS011;38739;53.324;6.862;2022-12-18T05:15:20;117.07;;;39.63;;
52866;SDS011;38739;53.324;6.862;2022-12-18T05:17:45;105.90;;;37.47;;
52866;SDS011;38739;53.324;6.862;2022-12-18T05:20:11;111.75;;;38.38;;
52866;SDS011;38739;53.324;6.862;2022-12-18T05:22:37;102.30;;;36.97;;
52866;SDS011;38739;53.324;6.862;2022-12-18T05:25:02;103.88;;;35.97;;
52866;SDS011;38739;53.324;6.862;2022-12-18T05:27:29;104.93;;;36.92;;
52866;SDS011;38739;53.324;6.862;2022-12-18T05:29:55;103.93;;;37.47;;
52866;SDS011;38739;53.324;6.862;2022-12-18T05:32:20;101.20;;;36.50;;
52866;SDS011;38739;53.324;6.862;2022-12-18T05:34:46;112.45;;;37.15;;
52866;SDS011;38739;53.324;6.862;2022-12-18T05:37:12;99.30;;;34.83;;
52866;SDS011;38739;53.324;6.862;2022-12-18T05:39:38;91.15;;;33.90;;
52866;SDS011;38739;53.324;6.862;2022-12-18T05:42:03;93.10;;;33.70;;
52866;SDS011;38739;53.324;6.862;2022-12-18T05:44:29;92.27;;;33.43;;
52866;SDS011;38739;53.324;6.862;2022-12-18T05:46:54;85.03;;;33.55;;
52866;SDS011;38739;53.324;6.862;2022-12-18T05:49:20;94.00;;;35.27;;
52866;SDS011;38739;53.324;6.862;2022-12-18T05:51:46;88.72;;;33.55;;
52866;SDS011;38739;53.324;6.862;2022-12-18T05:54:12;85.72;;;33.22;;
52866;SDS011;38739;53.324;6.862;2022-12-18T05:56:37;81.87;;;32.63;;
52866;SDS011;38739;53.324;6.862;2022-12-18T05:59:03;86.30;;;33.50;;
52866;SDS011;38739;53.324;6.862;2022-12-18T06:01:29;80.40;;;30.55;;
52866;SDS011;38739;53.324;6.862;2022-12-18T06:03:55;80.07;;;30.73;;
52866;SDS011;38739;53.324;6.862;2022-12-18T06:06:21;81.80;;;30.48;;
52866;SDS011;38739;53.324;6.862;2022-12-18T06:08:48;92.25;;;31.92;;
52866;SDS011;38739;53.324;6.862;2022-12-18T06:11:16;82.40;;;31.20;;
52866;SDS011;38739;53.324;6.862;2022-12-18T06:13:43;79.00;;;30.30;;
52866;SDS011;38739;53.324;6.862;2022-12-18T06:16:09;74.33;;;29.90;;
52866;SDS011;38739;53.324;6.862;2022-12-18T06:18:35;76.40;;;29.87;;
52866;SDS011;38739;53.324;6.862;2022-12-18T06:21:01;79.97;;;29.88;;
52866;SDS011;38739;53.324;6.862;2022-12-18T06:23:27;78.90;;;29.58;;
52866;SDS011;38739;53.324;6.862;2022-12-18T06:25:53;77.07;;;29.53;;
52866;SDS011;38739;53.324;6.862;2022-12-18T06:28:18;77.10;;;28.80;;
52866;SDS011;38739;53.324;6.862;2022-12-18T06:30:45;78.60;;;29.47;;
52866;SDS011;38739;53.324;6.862;2022-12-18T06:33:11;72.67;;;29.47;;
52866;SDS011;38739;53.324;6.862;2022-12-18T06:35:37;83.57;;;30.63;;
52866;SDS011;38739;53.324;6.862;2022-12-18T06:38:03;72.60;;;28.77;;
52866;SDS011;38739;53.324;6.862;2022-12-18T06:40:29;73.20;;;28.77;;
52866;SDS011;38739;53.324;6.862;2022-12-18T06:42:54;75.77;;;29.00;;
52866;SDS011;38739;53.324;6.862;2022-12-18T06:45:20;71.77;;;28.73;;
52866;SDS011;38739;53.324;6.862;2022-12-18T06:47:46;75.60;;;28.20;;
52866;SDS011;38739;53.324;6.862;2022-12-18T06:50:12;73.27;;;28.60;;
52866;SDS011;38739;53.324;6.862;2022-12-18T06:52:38;74.63;;;28.75;;
52866;SDS011;38739;53.324;6.862;2022-12-18T06:55:06;75.93;;;28.93;;
52866;SDS011;38739;53.324;6.862;2022-12-18T06:57:35;69.13;;;28.07;;
52866;SDS011;38739;53.324;6.862;2022-12-18T07:00:02;68.43;;;27.93;;
52866;SDS011;38739;53.324;6.862;2022-12-18T07:02:29;78.70;;;28.77;;
52866;SDS011;38739;53.324;6.862;2022-12-18T07:04:54;74.90;;;28.40;;
52866;SDS011;38739;53.324;6.862;2022-12-18T07:07:20;72.17;;;28.50;;
52866;SDS011;38739;53.324;6.862;2022-12-18T07:09:46;69.83;;;28.20;;
52866;SDS011;38739;53.324;6.862;2022-12-18T07:12:11;69.77;;;27.50;;
52866;SDS011;38739;53.324;6.862;2022-12-18T07:14:37;64.83;;;27.67;;
52866;SDS011;38739;53.324;6.862;2022-12-18T07:17:03;63.10;;;27.23;;
52866;SDS011;38739;53.324;6.862;2022-12-18T07:19:29;68.17;;;26.23;;
52866;SDS011;38739;53.324;6.862;2022-12-18T07:21:54;62.37;;;26.63;;
52866;SDS011;38739;53.324;6.862;2022-12-18T07:24:20;64.87;;;26.10;;
52866;SDS011;38739;53.324;6.862;2022-12-18T07:26:46;60.30;;;25.60;;
52866;SDS011;38739;53.324;6.862;2022-12-18T07:29:12;63.37;;;25.20;;
52866;SDS011;38739;53.324;6.862;2022-12-18T07:31:38;60.50;;;25.37;;
52866;SDS011;38739;53.324;6.862;2022-12-18T07:34:04;61.03;;;24.77;;
52866;SDS011;38739;53.324;6.862;2022-12-18T07:36:29;64.40;;;25.40;;
52866;SDS011;38739;53.324;6.862;2022-12-18T07:38:55;57.17;;;24.10;;
52866;SDS011;38739;53.324;6.862;2022-12-18T07:41:21;57.30;;;24.87;;
52866;SDS011;38739;53.324;6.862;2022-12-18T07:43:47;59.80;;;23.50;;
52866;SDS011;38739;53.324;6.862;2022-12-18T07:46:13;63.67;;;25.93;;
52866;SDS011;38739;53.324;6.862;2022-12-18T07:48:43;60.63;;;24.70;;
52866;SDS011;38739;53.324;6.862;2022-12-18T07:51:09;60.53;;;26.07;;
52866;SDS011;38739;53.324;6.862;2022-12-18T07:53:35;57.07;;;25.23;;
52866;SDS011;38739;53.324;6.862;2022-12-18T07:56:10;54.00;;;24.33;;
52866;SDS011;38739;53.324;6.862;2022-12-18T07:58:37;53.33;;;24.20;;
52866;SDS011;38739;53.324;6.862;2022-12-18T08:01:04;53.53;;;24.33;;
52866;SDS011;38739;53.324;6.862;2022-12-18T08:03:31;62.57;;;25.17;;
52866;SDS011;38739;53.324;6.862;2022-12-18T08:06:00;54.23;;;23.50;;
52866;SDS011;38739;53.324;6.862;2022-12-18T08:08:28;54.47;;;23.33;;
52866;SDS011;38739;53.324;6.862;2022-12-18T08:10:54;53.53;;;23.93;;
52866;SDS011;38739;53.324;6.862;2022-12-18T08:13:20;53.50;;;23.23;;
52866;SDS011;38739;53.324;6.862;2022-12-18T08:15:46;51.47;;;23.23;;
52866;SDS011;38739;53.324;6.862;2022-12-18T08:18:11;49.30;;;23.00;;
52866;SDS011;38739;53.324;6.862;2022-12-18T08:20:37;55.17;;;24.10;;
52866;SDS011;38739;53.324;6.862;2022-12-18T08:23:03;48.60;;;22.83;;
52866;SDS011;38739;53.324;6.862;2022-12-18T08:25:28;50.30;;;22.90;;
52866;SDS011;38739;53.324;6.862;2022-12-18T08:27:54;54.63;;;23.57;;
52866;SDS011;38739;53.324;6.862;2022-12-18T08:30:21;46.43;;;21.17;;
52866;SDS011;38739;53.324;6.862;2022-12-18T08:32:49;53.23;;;23.47;;
52866;SDS011;38739;53.324;6.862;2022-12-18T08:35:17;46.73;;;21.90;;
52866;SDS011;38739;53.324;6.862;2022-12-18T08:37:43;46.43;;;21.60;;
52866;SDS011;38739;53.324;6.862;2022-12-18T08:40:09;52.40;;;20.93;;
52866;SDS011;38739;53.324;6.862;2022-12-18T08:42:35;48.00;;;21.73;;
52866;SDS011;38739;53.324;6.862;2022-12-18T08:45:19;54.53;;;22.57;;
52866;SDS011;38739;53.324;6.862;2022-12-18T08:47:45;48.83;;;21.67;;
52866;SDS011;38739;53.324;6.862;2022-12-18T08:50:13;47.07;;;21.80;;
52866;SDS011;38739;53.324;6.862;2022-12-18T08:52:39;47.40;;;21.07;;
52866;SDS011;38739;53.324;6.862;2022-12-18T08:55:05;45.57;;;20.90;;
52866;SDS011;38739;53.324;6.862;2022-12-18T08:57:31;49.87;;;21.00;;
52866;SDS011;38739;53.324;6.862;2022-12-18T08:59:57;45.40;;;20.13;;
52866;SDS011;38739;53.324;6.862;2022-12-18T09:02:23;44.47;;;21.23;;
52866;SDS011;38739;53.324;6.862;2022-12-18T09:04:48;44.95;;;21.42;;
52866;SDS011;38739;53.324;6.862;2022-12-18T09:07:14;46.77;;;20.73;;
52866;SDS011;38739;53.324;6.862;2022-12-18T09:09:40;46.87;;;20.37;;
52866;SDS011;38739;53.324;6.862;2022-12-18T09:12:05;45.97;;;21.67;;
52866;SDS011;38739;53.324;6.862;2022-12-18T09:14:31;42.60;;;20.47;;
52866;SDS011;38739;53.324;6.862;2022-12-18T09:16:57;47.77;;;21.87;;
52866;SDS011;38739;53.324;6.862;2022-12-18T09:19:23;45.10;;;20.37;;
52866;SDS011;38739;53.324;6.862;2022-12-18T09:21:49;47.57;;;21.17;;
52866;SDS011;38739;53.324;6.862;2022-12-18T09:24:15;49.40;;;21.60;;
52866;SDS011;38739;53.324;6.862;2022-12-18T09:26:41;39.05;;;20.08;;
52866;SDS011;38739;53.324;6.862;2022-12-18T09:29:07;40.57;;;20.00;;
52866;SDS011;38739;53.324;6.862;2022-12-18T09:31:33;47.30;;;21.20;;
52866;SDS011;38739;53.324;6.862;2022-12-18T09:34:01;40.83;;;19.53;;
52866;SDS011;38739;53.324;6.862;2022-12-18T09:36:32;38.37;;;19.53;;
52866;SDS011;38739;53.324;6.862;2022-12-18T09:38:58;35.80;;;18.27;;
52866;SDS011;38739;53.324;6.862;2022-12-18T09:43:53;39.05;;;19.05;;
52866;SDS011;38739;53.324;6.862;2022-12-18T09:46:24;38.55;;;19.23;;
52866;SDS011;38739;53.324;6.862;2022-12-18T09:48:57;39.20;;;17.97;;
52866;SDS011;38739;53.324;6.862;2022-12-18T09:51:30;39.17;;;18.17;;
52866;SDS011;38739;53.324;6.862;2022-12-18T09:54:23;36.03;;;17.92;;
52866;SDS011;38739;53.324;6.862;2022-12-18T09:56:48;35.17;;;18.73;;
52866;SDS011;38739;53.324;6.862;2022-12-18T09:59:24;34.72;;;18.55;;
52866;SDS011;38739;53.324;6.862;2022-12-18T10:01:56;35.53;;;18.05;;
52866;SDS011;38739;53.324;6.862;2022-12-18T10:04:21;37.58;;;17.65;;
52866;SDS011;38739;53.324;6.862;2022-12-18T10:06:51;33.80;;;17.88;;
52866;SDS011;38739;53.324;6.862;2022-12-18T10:09:25;33.67;;;17.52;;
52866;SDS011;38739;53.324;6.862;2022-12-18T10:12:07;34.03;;;16.45;;
52866;SDS011;38739;53.324;6.862;2022-12-18T10:15:02;29.10;;;15.98;;
52866;SDS011;38739;53.324;6.862;2022-12-18T10:20:43;27.88;;;15.52;;
52866;SDS011;38739;53.324;6.862;2022-12-18T10:25:34;29.85;;;15.25;;
52866;SDS011;38739;53.324;6.862;2022-12-18T10:28:25;30.17;;;16.08;;
52866;SDS011;38739;53.324;6.862;2022-12-18T10:30:51;30.10;;;15.38;;
52866;SDS011;38739;53.324;6.862;2022-12-18T10:33:19;25.98;;;14.52;;
52866;SDS011;38739;53.324;6.862;2022-12-18T10:35:50;26.67;;;14.23;;
52866;SDS011;38739;53.324;6.862;2022-12-18T10:46:35;21.80;;;12.23;;
52866;SDS011;38739;53.324;6.862;2022-12-18T10:49:00;19.77;;;12.10;;
52866;SDS011;38739;53.324;6.862;2022-12-18T10:51:27;20.55;;;12.30;;
52866;SDS011;38739;53.324;6.862;2022-12-18T10:54:05;18.88;;;11.35;;
52866;SDS011;38739;53.324;6.862;2022-12-18T10:56:39;18.58;;;10.90;;
52866;SDS011;38739;53.324;6.862;2022-12-18T10:59:06;20.17;;;11.27;;
52866;SDS011;38739;53.324;6.862;2022-12-18T11:01:52;16.60;;;10.32;;
52866;SDS011;38739;53.324;6.862;2022-12-18T11:04:30;18.92;;;10.93;;
52866;SDS011;38739;53.324;6.862;2022-12-18T11:09:30;19.33;;;10.95;;
52866;SDS011;38739;53.324;6.862;2022-12-18T11:12:19;18.52;;;10.75;;
52866;SDS011;38739;53.324;6.862;2022-12-18T11:14:48;19.80;;;11.02;;
52866;SDS011;38739;53.324;6.862;2022-12-18T11:17:18;22.35;;;12.13;;
52866;SDS011;38739;53.324;6.862;2022-12-18T11:19:44;20.92;;;11.82;;
52866;SDS011;38739;53.324;6.862;2022-12-18T11:22:24;20.83;;;11.55;;
52866;SDS011;38739;53.324;6.862;2022-12-18T11:25:01;19.85;;;11.48;;
52866;SDS011;38739;53.324;6.862;2022-12-18T11:27:41;20.08;;;11.25;;
52866;SDS011;38739;53.324;6.862;2022-12-18T11:35:39;22.65;;;12.38;;
52866;SDS011;38739;53.324;6.862;2022-12-18T11:38:24;21.10;;;11.38;;
52866;SDS011;38739;53.324;6.862;2022-12-18T11:43:47;20.95;;;11.43;;
52866;SDS011;38739;53.324;6.862;2022-12-18T11:46:25;21.15;;;11.57;;
52866;SDS011;38739;53.324;6.862;2022-12-18T11:51:49;17.08;;;10.00;;
52866;SDS011;38739;53.324;6.862;2022-12-18T11:54:22;22.00;;;11.15;;
52866;SDS011;38739;53.324;6.862;2022-12-18T11:56:52;18.35;;;10.70;;
52866;SDS011;38739;53.324;6.862;2022-12-18T12:07:51;16.98;;;9.98;;
52866;SDS011;38739;53.324;6.862;2022-12-18T12:15:41;16.88;;;9.88;;
52866;SDS011;38739;53.324;6.862;2022-12-18T12:21:06;17.15;;;9.98;;
52866;SDS011;38739;53.324;6.862;2022-12-18T12:32:16;18.58;;;9.27;;
52866;SDS011;38739;53.324;6.862;2022-12-18T12:38:02;16.25;;;9.13;;
52866;SDS011;38739;53.324;6.862;2022-12-18T12:40:31;17.55;;;9.18;;
52866;SDS011;38739;53.324;6.862;2022-12-18T12:43:02;15.70;;;8.98;;
52866;SDS011;38739;53.324;6.862;2022-12-18T12:45:54;15.02;;;9.25;;
52866;SDS011;38739;53.324;6.862;2022-12-18T12:50:58;15.27;;;8.85;;
52866;SDS011;38739;53.324;6.862;2022-12-18T12:53:29;16.35;;;9.02;;
52866;SDS011;38739;53.324;6.862;2022-12-18T12:55:59;15.55;;;9.43;;
52866;SDS011;38739;53.324;6.862;2022-12-18T13:04:06;19.88;;;9.88;;
52866;SDS011;38739;53.324;6.862;2022-12-18T13:06:45;17.02;;;10.30;;
52866;SDS011;38739;53.324;6.862;2022-12-18T13:09:16;17.33;;;9.52;;
52866;SDS011;38739;53.324;6.862;2022-12-18T13:11:43;18.00;;;10.23;;
52866;SDS011;38739;53.324;6.862;2022-12-18T13:14:32;17.52;;;9.63;;
52866;SDS011;38739;53.324;6.862;2022-12-18T13:19:47;15.60;;;9.77;;
52866;SDS011;38739;53.324;6.862;2022-12-18T13:22:31;19.30;;;10.25;;
52866;SDS011;38739;53.324;6.862;2022-12-18T13:24:59;18.37;;;10.63;;
52866;SDS011;38739;53.324;6.862;2022-12-18T13:40:57;15.98;;;9.57;;
52866;SDS011;38739;53.324;6.862;2022-12-18T13:43:28;16.50;;;10.05;;
52866;SDS011;38739;53.324;6.862;2022-12-18T13:48:41;17.92;;;10.48;;
52866;SDS011;38739;53.324;6.862;2022-12-18T13:51:19;18.40;;;10.75;;
52866;SDS011;38739;53.324;6.862;2022-12-18T13:54:06;17.65;;;10.55;;
52866;SDS011;38739;53.324;6.862;2022-12-18T13:56:57;20.90;;;11.05;;
52866;SDS011;38739;53.324;6.862;2022-12-18T13:59:32;20.23;;;10.80;;
52866;SDS011;38739;53.324;6.862;2022-12-18T14:02:04;20.10;;;11.18;;
52866;SDS011;38739;53.324;6.862;2022-12-18T14:04:40;20.23;;;10.98;;
52866;SDS011;38739;53.324;6.862;2022-12-18T14:07:06;20.65;;;11.30;;
52866;SDS011;38739;53.324;6.862;2022-12-18T14:09:36;20.40;;;11.18;;
52866;SDS011;38739;53.324;6.862;2022-12-18T14:12:11;21.40;;;12.52;;
52866;SDS011;38739;53.324;6.862;2022-12-18T14:15:02;21.63;;;11.43;;
52866;SDS011;38739;53.324;6.862;2022-12-18T14:17:30;20.23;;;11.98;;
52866;SDS011;38739;53.324;6.862;2022-12-18T14:19:57;20.95;;;12.55;;
52866;SDS011;38739;53.324;6.862;2022-12-18T14:22:26;21.73;;;12.43;;
52866;SDS011;38739;53.324;6.862;2022-12-18T14:27:45;20.48;;;11.82;;
52866;SDS011;38739;53.324;6.862;2022-12-18T14:30:45;24.25;;;13.15;;
52866;SDS011;38739;53.324;6.862;2022-12-18T14:33:16;21.77;;;12.68;;
52866;SDS011;38739;53.324;6.862;2022-12-18T14:38:29;24.35;;;13.43;;
52866;SDS011;38739;53.324;6.862;2022-12-18T14:43:34;21.10;;;12.23;;
52866;SDS011;38739;53.324;6.862;2022-12-18T14:46:02;20.70;;;12.25;;
52866;SDS011;38739;53.324;6.862;2022-12-18T14:48:35;22.30;;;12.75;;
52866;SDS011;38739;53.324;6.862;2022-12-18T14:51:02;22.25;;;12.20;;
52866;SDS011;38739;53.324;6.862;2022-12-18T14:53:44;21.52;;;12.32;;
52866;SDS011;38739;53.324;6.862;2022-12-18T14:56:19;20.88;;;12.25;;
52866;SDS011;38739;53.324;6.862;2022-12-18T14:58:48;23.27;;;12.55;;
52866;SDS011;38739;53.324;6.862;2022-12-18T15:01:29;23.33;;;12.38;;
52866;SDS011;38739;53.324;6.862;2022-12-18T15:04:03;24.42;;;13.25;;
52866;SDS011;38739;53.324;6.862;2022-12-18T15:09:02;22.42;;;12.27;;
52866;SDS011;38739;53.324;6.862;2022-12-18T15:15:02;21.92;;;12.05;;
52866;SDS011;38739;53.324;6.862;2022-12-18T15:17:01;22.30;;;12.18;;
52866;SDS011;38739;53.324;6.862;2022-12-18T15:19:39;21.75;;;12.25;;
52866;SDS011;38739;53.324;6.862;2022-12-18T15:22:40;21.52;;;12.18;;
52866;SDS011;38739;53.324;6.862;2022-12-18T15:25:00;18.50;;;11.93;;
52866;SDS011;38739;53.324;6.862;2022-12-18T15:27:28;20.90;;;12.10;;
52866;SDS011;38739;53.324;6.862;2022-12-18T15:32:38;19.13;;;11.57;;
52866;SDS011;38739;53.324;6.862;2022-12-18T15:37:47;18.00;;;11.75;;
52866;SDS011;38739;53.324;6.862;2022-12-18T15:40:20;20.90;;;12.25;;
52866;SDS011;38739;53.324;6.862;2022-12-18T15:42:47;23.05;;;12.48;;
52866;SDS011;38739;53.324;6.862;2022-12-18T15:45:34;21.00;;;11.95;;
52866;SDS011;38739;53.324;6.862;2022-12-18T15:48:10;20.30;;;11.57;;
52866;SDS011;38739;53.324;6.862;2022-12-18T15:50:43;20.42;;;11.68;;
52866;SDS011;38739;53.324;6.862;2022-12-18T15:53:09;18.58;;;11.20;;
52866;SDS011;38739;53.324;6.862;2022-12-18T15:55:35;19.63;;;11.25;;
52866;SDS011;38739;53.324;6.862;2022-12-18T15:58:19;20.67;;;11.40;;
52866;SDS011;38739;53.324;6.862;2022-12-18T16:00:45;21.20;;;12.05;;
52866;SDS011;38739;53.324;6.862;2022-12-18T16:03:11;19.35;;;11.80;;
52866;SDS011;38739;53.324;6.862;2022-12-18T16:05:37;21.05;;;11.88;;
52866;SDS011;38739;53.324;6.862;2022-12-18T16:08:02;20.63;;;12.05;;
52866;SDS011;38739;53.324;6.862;2022-12-18T16:10:28;21.83;;;12.15;;
52866;SDS011;38739;53.324;6.862;2022-12-18T16:12:54;20.65;;;11.40;;
52866;SDS011;38739;53.324;6.862;2022-12-18T16:15:20;24.88;;;11.98;;
52866;SDS011;38739;53.324;6.862;2022-12-18T16:17:46;18.95;;;11.13;;
52866;SDS011;38739;53.324;6.862;2022-12-18T16:20:13;18.65;;;11.02;;
52866;SDS011;38739;53.324;6.862;2022-12-18T16:22:41;18.73;;;11.48;;
52866;SDS011;38739;53.324;6.862;2022-12-18T16:25:20;18.65;;;11.35;;
52866;SDS011;38739;53.324;6.862;2022-12-18T16:27:50;20.65;;;11.70;;
52866;SDS011;38739;53.324;6.862;2022-12-18T16:30:19;19.95;;;11.18;;
52866;SDS011;38739;53.324;6.862;2022-12-18T16:32:46;17.75;;;11.02;;
52866;SDS011;38739;53.324;6.862;2022-12-18T16:35:13;22.60;;;11.60;;
52866;SDS011;38739;53.324;6.862;2022-12-18T16:37:40;19.20;;;11.00;;
52866;SDS011;38739;53.324;6.862;2022-12-18T16:40:07;20.83;;;11.10;;
52866;SDS011;38739;53.324;6.862;2022-12-18T16:42:38;19.70;;;10.93;;
52866;SDS011;38739;53.324;6.862;2022-12-18T16:45:06;19.55;;;10.95;;
52866;SDS011;38739;53.324;6.862;2022-12-18T16:47:33;18.85;;;11.02;;
52866;SDS011;38739;53.324;6.862;2022-12-18T16:49:59;17.23;;;10.05;;